sensor_id;sensor_type;location;lat;lon;timestamp;temperature;humidity
6822;DHT22;3449;48.728;8.968;2024-03-08T00:01:33;2.40;99.90
6822;DHT22;3449;48.728;8.968;2024-03-08T00:04:01;2.40;99.90
6822;DHT22;3449;48.728;8.968;2024-03-08T00:06:28;2.40;99.90
6822;DHT22;3449;48.728;8.968;2024-03-08T00:08:55;2.40;99.90
6822;DHT22;3449;48.728;8.968;2024-03-08T00:11:22;2.40;99.90
6822;DHT22;3449;48.728;8.968;2024-03-08T00:13:51;2.40;99.90
6822;DHT22;3449;48.728;8.968;2024-03-08T00:16:18;2.40;99.90
6822;DHT22;3449;48.728;8.968;2024-03-08T00:18:45;2.50;99.90
6822;DHT22;3449;48.728;8.968;2024-03-08T00:21:14;2.40;99.90
6822;DHT22;3449;48.728;8.968;2024-03-08T00:23:41;2.30;99.90
6822;DHT22;3449;48.728;8.968;2024-03-08T00:26:08;2.30;99.90
6822;DHT22;3449;48.728;8.968;2024-03-08T00:28:35;2.30;99.90
6822;DHT22;3449;48.728;8.968;2024-03-08T00:31:02;2.20;99.90
6822;DHT22;3449;48.728;8.968;2024-03-08T00:33:28;2.20;99.90
6822;DHT22;3449;48.728;8.968;2024-03-08T00:35:55;2.20;99.90
6822;DHT22;3449;48.728;8.968;2024-03-08T00:38:24;2.10;99.90
6822;DHT22;3449;48.728;8.968;2024-03-08T00:40:50;2.10;99.90
6822;DHT22;3449;48.728;8.968;2024-03-08T00:43:17;2.10;99.90
6822;DHT22;3449;48.728;8.968;2024-03-08T00:45:44;2.10;99.90
6822;DHT22;3449;48.728;8.968;2024-03-08T00:48:11;2.10;99.90
6822;DHT22;3449;48.728;8.968;2024-03-08T00:50:38;2.10;99.90
6822;DHT22;3449;48.728;8.968;2024-03-08T00:53:05;2.00;99.90
6822;DHT22;3449;48.728;8.968;2024-03-08T00:55:33;2.00;99.90
6822;DHT22;3449;48.728;8.968;2024-03-08T00:58:00;2.00;99.90
6822;DHT22;3449;48.728;8.968;2024-03-08T01:00:27;1.90;99.90
6822;DHT22;3449;48.728;8.968;2024-03-08T01:02:54;2.00;99.90
6822;DHT22;3449;48.728;8.968;2024-03-08T01:05:21;2.00;99.90
6822;DHT22;3449;48.728;8.968;2024-03-08T01:07:49;2.00;99.90
6822;DHT22;3449;48.728;8.968;2024-03-08T01:10:16;1.90;99.90
6822;DHT22;3449;48.728;8.968;2024-03-08T01:12:44;1.90;99.90
6822;DHT22;3449;48.728;8.968;2024-03-08T01:15:11;1.80;99.90
6822;DHT22;3449;48.728;8.968;2024-03-08T01:17:38;1.80;99.90
6822;DHT22;3449;48.728;8.968;2024-03-08T01:20:07;1.90;99.90
6822;DHT22;3449;48.728;8.968;2024-03-08T01:22:36;1.80;99.90
6822;DHT22;3449;48.728;8.968;2024-03-08T01:25:03;1.80;99.90
6822;DHT22;3449;48.728;8.968;2024-03-08T01:27:31;1.80;99.90
6822;DHT22;3449;48.728;8.968;2024-03-08T01:29:59;1.70;99.90
6822;DHT22;3449;48.728;8.968;2024-03-08T01:32:26;1.70;99.90
6822;DHT22;3449;48.728;8.968;2024-03-08T01:34:53;1.70;99.90
6822;DHT22;3449;48.728;8.968;2024-03-08T01:37:20;1.70;99.90
6822;DHT22;3449;48.728;8.968;2024-03-08T01:39:46;1.60;99.90
6822;DHT22;3449;48.728;8.968;2024-03-08T01:42:13;1.70;99.90
6822;DHT22;3449;48.728;8.968;2024-03-08T01:44:43;1.60;99.90
6822;DHT22;3449;48.728;8.968;2024-03-08T01:47:11;1.60;99.90
6822;DHT22;3449;48.728;8.968;2024-03-08T01:49:38;1.60;99.90
6822;DHT22;3449;48.728;8.968;2024-03-08T01:52:06;1.60;99.90
6822;DHT22;3449;48.728;8.968;2024-03-08T01:54:34;1.60;99.90
6822;DHT22;3449;48.728;8.968;2024-03-08T01:57:01;1.50;99.90
6822;DHT22;3449;48.728;8.968;2024-03-08T01:59:28;1.50;99.90
6822;DHT22;3449;48.728;8.968;2024-03-08T02:01:55;1.50;99.90
6822;DHT22;3449;48.728;8.968;2024-03-08T02:04:26;1.50;99.90
6822;DHT22;3449;48.728;8.968;2024-03-08T02:06:53;1.40;99.90
6822;DHT22;3449;48.728;8.968;2024-03-08T02:09:20;1.40;99.90
6822;DHT22;3449;48.728;8.968;2024-03-08T02:11:46;1.50;99.90
6822;DHT22;3449;48.728;8.968;2024-03-08T02:14:13;1.40;99.90
6822;DHT22;3449;48.728;8.968;2024-03-08T02:16:40;1.40;99.90
6822;DHT22;3449;48.728;8.968;2024-03-08T02:19:07;1.30;99.90
6822;DHT22;3449;48.728;8.968;2024-03-08T02:21:36;1.30;99.90
6822;DHT22;3449;48.728;8.968;2024-03-08T02:24:04;1.30;99.90
6822;DHT22;3449;48.728;8.968;2024-03-08T02:26:31;1.30;99.90
6822;DHT22;3449;48.728;8.968;2024-03-08T02:28:58;1.30;99.90
6822;DHT22;3449;48.728;8.968;2024-03-08T02:31:25;1.20;99.90
6822;DHT22;3449;48.728;8.968;2024-03-08T02:33:51;1.20;99.90
6822;DHT22;3449;48.728;8.968;2024-03-08T02:36:18;1.20;99.90
6822;DHT22;3449;48.728;8.968;2024-03-08T02:38:46;1.20;99.90
6822;DHT22;3449;48.728;8.968;2024-03-08T02:41:13;1.20;99.90
6822;DHT22;3449;48.728;8.968;2024-03-08T02:43:40;1.20;99.90
6822;DHT22;3449;48.728;8.968;2024-03-08T02:46:07;1.20;99.90
6822;DHT22;3449;48.728;8.968;2024-03-08T02:48:34;1.10;99.90
6822;DHT22;3449;48.728;8.968;2024-03-08T02:51:01;1.10;99.90
6822;DHT22;3449;48.728;8.968;2024-03-08T02:53:29;1.10;99.90
6822;DHT22;3449;48.728;8.968;2024-03-08T02:55:57;1.10;99.90
6822;DHT22;3449;48.728;8.968;2024-03-08T02:58:23;1.00;99.90
6822;DHT22;3449;48.728;8.968;2024-03-08T03:00:50;1.00;99.90
6822;DHT22;3449;48.728;8.968;2024-03-08T03:03:17;1.00;99.90
6822;DHT22;3449;48.728;8.968;2024-03-08T03:05:44;1.00;99.90
6822;DHT22;3449;48.728;8.968;2024-03-08T03:08:11;1.00;99.90
6822;DHT22;3449;48.728;8.968;2024-03-08T03:10:38;1.00;99.90
6822;DHT22;3449;48.728;8.968;2024-03-08T03:13:06;1.00;99.90
6822;DHT22;3449;48.728;8.968;2024-03-08T03:15:34;0.90;99.90
6822;DHT22;3449;48.728;8.968;2024-03-08T03:17:59;0.90;99.90
6822;DHT22;3449;48.728;8.968;2024-03-08T03:20:27;0.90;99.90
6822;DHT22;3449;48.728;8.968;2024-03-08T03:22:58;0.90;99.90
6822;DHT22;3449;48.728;8.968;2024-03-08T03:25:27;0.90;99.90
6822;DHT22;3449;48.728;8.968;2024-03-08T03:27:59;0.80;99.90
6822;DHT22;3449;48.728;8.968;2024-03-08T03:30:27;0.80;99.90
6822;DHT22;3449;48.728;8.968;2024-03-08T03:32:58;0.80;99.90
6822;DHT22;3449;48.728;8.968;2024-03-08T03:35:26;0.70;99.90
6822;DHT22;3449;48.728;8.968;2024-03-08T03:37:53;0.70;99.90
6822;DHT22;3449;48.728;8.968;2024-03-08T03:40:28;0.70;99.90
6822;DHT22;3449;48.728;8.968;2024-03-08T03:42:55;0.70;99.90
6822;DHT22;3449;48.728;8.968;2024-03-08T03:45:22;0.70;99.90
6822;DHT22;3449;48.728;8.968;2024-03-08T03:47:50;0.60;99.90
6822;DHT22;3449;48.728;8.968;2024-03-08T03:50:17;0.60;99.90
6822;DHT22;3449;48.728;8.968;2024-03-08T03:52:45;0.60;99.90
6822;DHT22;3449;48.728;8.968;2024-03-08T03:55:12;0.60;99.90
6822;DHT22;3449;48.728;8.968;2024-03-08T03:57:39;0.60;99.90
6822;DHT22;3449;48.728;8.968;2024-03-08T04:00:07;0.50;99.90
6822;DHT22;3449;48.728;8.968;2024-03-08T04:02:36;0.50;99.90
6822;DHT22;3449;48.728;8.968;2024-03-08T04:05:06;0.50;99.90
6822;DHT22;3449;48.728;8.968;2024-03-08T04:07:33;0.50;99.90
6822;DHT22;3449;48.728;8.968;2024-03-08T04:10:00;0.50;99.90
6822;DHT22;3449;48.728;8.968;2024-03-08T04:12:27;0.50;99.90
6822;DHT22;3449;48.728;8.968;2024-03-08T04:14:55;0.50;99.90
6822;DHT22;3449;48.728;8.968;2024-03-08T04:17:22;0.50;99.90
6822;DHT22;3449;48.728;8.968;2024-03-08T04:19:49;0.50;99.90
6822;DHT22;3449;48.728;8.968;2024-03-08T04:22:18;0.50;99.90
6822;DHT22;3449;48.728;8.968;2024-03-08T04:24:45;0.50;99.90
6822;DHT22;3449;48.728;8.968;2024-03-08T04:27:12;0.40;99.90
6822;DHT22;3449;48.728;8.968;2024-03-08T04:29:39;0.40;99.90
6822;DHT22;3449;48.728;8.968;2024-03-08T04:32:07;0.40;99.90
6822;DHT22;3449;48.728;8.968;2024-03-08T04:34:34;0.40;99.90
6822;DHT22;3449;48.728;8.968;2024-03-08T04:37:01;0.40;99.90
6822;DHT22;3449;48.728;8.968;2024-03-08T04:39:31;0.30;99.90
6822;DHT22;3449;48.728;8.968;2024-03-08T04:42:01;0.30;99.90
6822;DHT22;3449;48.728;8.968;2024-03-08T04:44:29;0.30;99.90
6822;DHT22;3449;48.728;8.968;2024-03-08T04:46:57;0.30;99.90
6822;DHT22;3449;48.728;8.968;2024-03-08T04:49:23;0.20;99.90
6822;DHT22;3449;48.728;8.968;2024-03-08T04:51:50;0.20;99.90
6822;DHT22;3449;48.728;8.968;2024-03-08T04:54:17;0.20;99.90
6822;DHT22;3449;48.728;8.968;2024-03-08T04:56:45;0.20;99.90
6822;DHT22;3449;48.728;8.968;2024-03-08T04:59:12;0.20;99.90
6822;DHT22;3449;48.728;8.968;2024-03-08T05:01:39;0.20;99.90
6822;DHT22;3449;48.728;8.968;2024-03-08T05:04:06;0.20;99.90
6822;DHT22;3449;48.728;8.968;2024-03-08T05:06:33;0.10;99.90
6822;DHT22;3449;48.728;8.968;2024-03-08T05:09:00;0.10;99.90
6822;DHT22;3449;48.728;8.968;2024-03-08T05:11:28;0.10;99.90
6822;DHT22;3449;48.728;8.968;2024-03-08T05:13:56;0.00;99.90
6822;DHT22;3449;48.728;8.968;2024-03-08T05:16:24;0.00;99.90
6822;DHT22;3449;48.728;8.968;2024-03-08T05:18:51;0.00;99.90
6822;DHT22;3449;48.728;8.968;2024-03-08T05:21:18;0.00;99.90
6822;DHT22;3449;48.728;8.968;2024-03-08T05:23:46;0.00;99.90
6822;DHT22;3449;48.728;8.968;2024-03-08T05:26:13;0.00;99.90
6822;DHT22;3449;48.728;8.968;2024-03-08T05:28:40;0.00;99.90
6822;DHT22;3449;48.728;8.968;2024-03-08T05:31:08;-0.10;99.90
6822;DHT22;3449;48.728;8.968;2024-03-08T05:33:35;-0.10;99.90
6822;DHT22;3449;48.728;8.968;2024-03-08T05:36:02;-0.10;99.90
6822;DHT22;3449;48.728;8.968;2024-03-08T05:38:29;-0.10;99.90
6822;DHT22;3449;48.728;8.968;2024-03-08T05:40:56;-0.10;99.90
6822;DHT22;3449;48.728;8.968;2024-03-08T05:43:23;-0.10;99.90
6822;DHT22;3449;48.728;8.968;2024-03-08T05:45:50;-0.10;99.90
6822;DHT22;3449;48.728;8.968;2024-03-08T05:48:18;-0.10;99.90
6822;DHT22;3449;48.728;8.968;2024-03-08T05:50:45;-0.20;99.90
6822;DHT22;3449;48.728;8.968;2024-03-08T05:53:12;-0.20;99.90
6822;DHT22;3449;48.728;8.968;2024-03-08T05:55:40;-0.20;99.90
6822;DHT22;3449;48.728;8.968;2024-03-08T05:58:07;-0.30;99.90
6822;DHT22;3449;48.728;8.968;2024-03-08T06:00:34;-0.30;99.90
6822;DHT22;3449;48.728;8.968;2024-03-08T06:03:02;-0.30;99.90
6822;DHT22;3449;48.728;8.968;2024-03-08T06:05:30;-0.30;99.90
6822;DHT22;3449;48.728;8.968;2024-03-08T06:07:57;-0.30;99.90
6822;DHT22;3449;48.728;8.968;2024-03-08T06:10:24;-0.30;99.90
6822;DHT22;3449;48.728;8.968;2024-03-08T06:12:51;-0.30;99.90
6822;DHT22;3449;48.728;8.968;2024-03-08T06:15:18;-0.30;99.90
6822;DHT22;3449;48.728;8.968;2024-03-08T06:17:46;-0.30;99.90
6822;DHT22;3449;48.728;8.968;2024-03-08T06:20:13;-0.30;99.90
6822;DHT22;3449;48.728;8.968;2024-03-08T06:22:42;-0.20;99.90
6822;DHT22;3449;48.728;8.968;2024-03-08T06:25:11;-0.20;99.90
6822;DHT22;3449;48.728;8.968;2024-03-08T06:27:39;-0.20;99.90
6822;DHT22;3449;48.728;8.968;2024-03-08T06:30:08;-0.20;99.90
6822;DHT22;3449;48.728;8.968;2024-03-08T06:32:36;-0.20;99.90
6822;DHT22;3449;48.728;8.968;2024-03-08T06:35:03;-0.10;99.90
6822;DHT22;3449;48.728;8.968;2024-03-08T06:37:31;-0.10;99.90
6822;DHT22;3449;48.728;8.968;2024-03-08T06:40:00;0.00;99.90
6822;DHT22;3449;48.728;8.968;2024-03-08T06:42:27;0.00;99.90
6822;DHT22;3449;48.728;8.968;2024-03-08T06:44:54;0.00;99.90
6822;DHT22;3449;48.728;8.968;2024-03-08T06:47:28;0.10;99.90
6822;DHT22;3449;48.728;8.968;2024-03-08T06:49:55;0.10;99.90
6822;DHT22;3449;48.728;8.968;2024-03-08T06:52:22;0.20;99.90
6822;DHT22;3449;48.728;8.968;2024-03-08T06:54:49;0.30;99.90
6822;DHT22;3449;48.728;8.968;2024-03-08T06:57:19;0.30;99.90
6822;DHT22;3449;48.728;8.968;2024-03-08T06:59:47;0.30;99.90
6822;DHT22;3449;48.728;8.968;2024-03-08T07:02:14;0.40;99.90
6822;DHT22;3449;48.728;8.968;2024-03-08T07:04:41;0.40;99.90
6822;DHT22;3449;48.728;8.968;2024-03-08T07:07:07;0.40;99.90
6822;DHT22;3449;48.728;8.968;2024-03-08T07:09:35;0.50;99.90
6822;DHT22;3449;48.728;8.968;2024-03-08T07:12:02;0.50;99.90
6822;DHT22;3449;48.728;8.968;2024-03-08T07:14:30;0.60;99.90
6822;DHT22;3449;48.728;8.968;2024-03-08T07:16:57;0.60;99.90
6822;DHT22;3449;48.728;8.968;2024-03-08T07:19:24;0.70;99.90
6822;DHT22;3449;48.728;8.968;2024-03-08T07:21:51;0.70;99.90
6822;DHT22;3449;48.728;8.968;2024-03-08T07:24:18;0.80;99.90
6822;DHT22;3449;48.728;8.968;2024-03-08T07:27:03;0.80;99.90
6822;DHT22;3449;48.728;8.968;2024-03-08T07:29:31;0.90;99.90
6822;DHT22;3449;48.728;8.968;2024-03-08T07:31:58;0.90;99.90
6822;DHT22;3449;48.728;8.968;2024-03-08T07:34:38;1.00;99.90
6822;DHT22;3449;48.728;8.968;2024-03-08T07:37:05;1.10;99.90
6822;DHT22;3449;48.728;8.968;2024-03-08T07:39:33;1.20;99.90
6822;DHT22;3449;48.728;8.968;2024-03-08T07:41:59;1.20;99.90
6822;DHT22;3449;48.728;8.968;2024-03-08T07:44:26;1.30;99.90
6822;DHT22;3449;48.728;8.968;2024-03-08T07:46:54;1.40;99.90
6822;DHT22;3449;48.728;8.968;2024-03-08T07:49:21;1.40;99.90
6822;DHT22;3449;48.728;8.968;2024-03-08T07:51:48;1.50;99.90
6822;DHT22;3449;48.728;8.968;2024-03-08T07:54:14;1.50;99.90
6822;DHT22;3449;48.728;8.968;2024-03-08T07:56:41;1.60;99.90
6822;DHT22;3449;48.728;8.968;2024-03-08T07:59:08;1.60;99.90
6822;DHT22;3449;48.728;8.968;2024-03-08T08:01:37;1.60;99.90
6822;DHT22;3449;48.728;8.968;2024-03-08T08:04:05;1.70;99.90
6822;DHT22;3449;48.728;8.968;2024-03-08T08:06:32;1.70;99.90
6822;DHT22;3449;48.728;8.968;2024-03-08T08:09:00;1.80;99.90
6822;DHT22;3449;48.728;8.968;2024-03-08T08:11:27;1.80;99.90
6822;DHT22;3449;48.728;8.968;2024-03-08T08:13:54;1.90;99.90
6822;DHT22;3449;48.728;8.968;2024-03-08T08:16:23;1.90;99.90
6822;DHT22;3449;48.728;8.968;2024-03-08T08:18:51;1.90;99.90
6822;DHT22;3449;48.728;8.968;2024-03-08T08:21:19;1.90;99.90
6822;DHT22;3449;48.728;8.968;2024-03-08T08:23:47;1.90;99.90
6822;DHT22;3449;48.728;8.968;2024-03-08T08:26:14;2.10;99.90
6822;DHT22;3449;48.728;8.968;2024-03-08T08:28:41;2.00;99.90
6822;DHT22;3449;48.728;8.968;2024-03-08T08:31:08;2.00;99.90
6822;DHT22;3449;48.728;8.968;2024-03-08T08:33:35;2.00;99.90
6822;DHT22;3449;48.728;8.968;2024-03-08T08:36:03;2.10;99.90
6822;DHT22;3449;48.728;8.968;2024-03-08T08:38:31;2.20;99.90
6822;DHT22;3449;48.728;8.968;2024-03-08T08:40:58;2.20;99.90
6822;DHT22;3449;48.728;8.968;2024-03-08T08:43:25;2.30;99.90
6822;DHT22;3449;48.728;8.968;2024-03-08T08:45:52;2.20;99.90
6822;DHT22;3449;48.728;8.968;2024-03-08T08:48:20;2.20;99.90
6822;DHT22;3449;48.728;8.968;2024-03-08T08:50:47;2.20;99.90
6822;DHT22;3449;48.728;8.968;2024-03-08T08:53:14;2.20;99.90
6822;DHT22;3449;48.728;8.968;2024-03-08T08:55:43;2.20;99.90
6822;DHT22;3449;48.728;8.968;2024-03-08T08:58:11;2.20;99.90
6822;DHT22;3449;48.728;8.968;2024-03-08T09:00:39;2.30;99.90
6822;DHT22;3449;48.728;8.968;2024-03-08T09:03:06;2.30;99.90
6822;DHT22;3449;48.728;8.968;2024-03-08T09:05:33;2.30;99.90
6822;DHT22;3449;48.728;8.968;2024-03-08T09:08:00;2.30;99.90
6822;DHT22;3449;48.728;8.968;2024-03-08T09:10:28;2.40;99.90
6822;DHT22;3449;48.728;8.968;2024-03-08T09:12:56;2.40;99.90
6822;DHT22;3449;48.728;8.968;2024-03-08T09:15:24;2.40;99.90
6822;DHT22;3449;48.728;8.968;2024-03-08T09:17:54;2.50;99.90
6822;DHT22;3449;48.728;8.968;2024-03-08T09:20:21;2.60;99.90
6822;DHT22;3449;48.728;8.968;2024-03-08T09:22:47;2.60;99.90
6822;DHT22;3449;48.728;8.968;2024-03-08T09:25:14;2.70;99.90
6822;DHT22;3449;48.728;8.968;2024-03-08T09:27:41;2.70;99.90
6822;DHT22;3449;48.728;8.968;2024-03-08T09:30:11;2.70;99.90
6822;DHT22;3449;48.728;8.968;2024-03-08T09:32:38;2.80;99.90
6822;DHT22;3449;48.728;8.968;2024-03-08T09:35:06;2.80;99.90
6822;DHT22;3449;48.728;8.968;2024-03-08T09:37:33;2.90;99.90
6822;DHT22;3449;48.728;8.968;2024-03-08T09:40:00;2.90;99.90
6822;DHT22;3449;48.728;8.968;2024-03-08T09:42:30;2.80;99.90
6822;DHT22;3449;48.728;8.968;2024-03-08T09:44:57;2.80;99.90
6822;DHT22;3449;48.728;8.968;2024-03-08T09:47:28;2.90;99.90
6822;DHT22;3449;48.728;8.968;2024-03-08T09:49:59;2.90;99.90
6822;DHT22;3449;48.728;8.968;2024-03-08T09:52:27;3.00;99.90
6822;DHT22;3449;48.728;8.968;2024-03-08T09:54:56;3.00;99.90
6822;DHT22;3449;48.728;8.968;2024-03-08T09:57:23;2.90;99.90
6822;DHT22;3449;48.728;8.968;2024-03-08T09:59:51;3.00;99.90
6822;DHT22;3449;48.728;8.968;2024-03-08T10:02:18;3.00;99.90
6822;DHT22;3449;48.728;8.968;2024-03-08T10:04:48;3.00;99.90
6822;DHT22;3449;48.728;8.968;2024-03-08T10:07:14;3.00;99.90
6822;DHT22;3449;48.728;8.968;2024-03-08T10:09:41;3.10;99.90
6822;DHT22;3449;48.728;8.968;2024-03-08T10:12:13;3.10;99.90
6822;DHT22;3449;48.728;8.968;2024-03-08T10:14:41;3.10;99.90
6822;DHT22;3449;48.728;8.968;2024-03-08T10:17:08;3.10;99.90
6822;DHT22;3449;48.728;8.968;2024-03-08T10:19:35;3.20;99.90
6822;DHT22;3449;48.728;8.968;2024-03-08T10:22:04;3.20;99.90
6822;DHT22;3449;48.728;8.968;2024-03-08T10:24:32;3.20;99.90
6822;DHT22;3449;48.728;8.968;2024-03-08T10:27:00;3.30;99.90
6822;DHT22;3449;48.728;8.968;2024-03-08T10:29:30;3.40;99.90
6822;DHT22;3449;48.728;8.968;2024-03-08T10:31:57;3.40;99.90
6822;DHT22;3449;48.728;8.968;2024-03-08T10:34:24;3.40;99.90
6822;DHT22;3449;48.728;8.968;2024-03-08T10:36:51;3.40;99.90
6822;DHT22;3449;48.728;8.968;2024-03-08T10:39:23;3.50;99.90
6822;DHT22;3449;48.728;8.968;2024-03-08T10:41:56;3.50;99.90
6822;DHT22;3449;48.728;8.968;2024-03-08T10:44:44;3.60;99.90
6822;DHT22;3449;48.728;8.968;2024-03-08T10:47:18;3.70;99.90
6822;DHT22;3449;48.728;8.968;2024-03-08T10:49:52;3.70;99.90
6822;DHT22;3449;48.728;8.968;2024-03-08T10:52:20;3.80;99.90
6822;DHT22;3449;48.728;8.968;2024-03-08T10:54:49;3.90;99.90
6822;DHT22;3449;48.728;8.968;2024-03-08T10:57:18;4.00;99.90
6822;DHT22;3449;48.728;8.968;2024-03-08T10:59:47;3.90;99.90
6822;DHT22;3449;48.728;8.968;2024-03-08T11:02:16;4.00;99.90
6822;DHT22;3449;48.728;8.968;2024-03-08T11:04:47;4.10;99.90
6822;DHT22;3449;48.728;8.968;2024-03-08T11:07:14;4.20;99.90
6822;DHT22;3449;48.728;8.968;2024-03-08T11:09:45;4.30;99.90
6822;DHT22;3449;48.728;8.968;2024-03-08T11:12:25;4.50;99.90
6822;DHT22;3449;48.728;8.968;2024-03-08T11:14:56;4.80;99.90
6822;DHT22;3449;48.728;8.968;2024-03-08T11:17:40;4.90;99.90
6822;DHT22;3449;48.728;8.968;2024-03-08T11:20:10;5.00;99.90
6822;DHT22;3449;48.728;8.968;2024-03-08T11:22:41;5.10;99.90
6822;DHT22;3449;48.728;8.968;2024-03-08T11:25:31;5.20;99.90
6822;DHT22;3449;48.728;8.968;2024-03-08T11:28:11;5.40;99.90
6822;DHT22;3449;48.728;8.968;2024-03-08T11:30:43;5.50;99.90
6822;DHT22;3449;48.728;8.968;2024-03-08T11:33:11;5.50;99.90
6822;DHT22;3449;48.728;8.968;2024-03-08T11:35:39;5.70;99.90
6822;DHT22;3449;48.728;8.968;2024-03-08T11:38:08;6.00;99.90
6822;DHT22;3449;48.728;8.968;2024-03-08T11:40:36;6.20;99.90
6822;DHT22;3449;48.728;8.968;2024-03-08T11:43:03;6.50;99.90
6822;DHT22;3449;48.728;8.968;2024-03-08T11:45:34;6.60;99.90
6822;DHT22;3449;48.728;8.968;2024-03-08T11:48:02;6.70;99.90
6822;DHT22;3449;48.728;8.968;2024-03-08T11:50:30;6.60;99.90
6822;DHT22;3449;48.728;8.968;2024-03-08T11:53:01;6.70;99.90
6822;DHT22;3449;48.728;8.968;2024-03-08T11:55:28;6.70;99.90
6822;DHT22;3449;48.728;8.968;2024-03-08T11:58:01;6.80;99.90
6822;DHT22;3449;48.728;8.968;2024-03-08T12:00:27;6.70;99.90
6822;DHT22;3449;48.728;8.968;2024-03-08T12:03:06;6.60;99.90
6822;DHT22;3449;48.728;8.968;2024-03-08T12:05:33;6.50;99.90
6822;DHT22;3449;48.728;8.968;2024-03-08T12:08:00;6.40;99.90
6822;DHT22;3449;48.728;8.968;2024-03-08T12:10:27;6.40;99.90
6822;DHT22;3449;48.728;8.968;2024-03-08T12:12:56;6.40;99.90
6822;DHT22;3449;48.728;8.968;2024-03-08T12:15:25;6.80;99.90
6822;DHT22;3449;48.728;8.968;2024-03-08T12:17:53;6.90;99.90
6822;DHT22;3449;48.728;8.968;2024-03-08T12:20:24;7.40;99.90
6822;DHT22;3449;48.728;8.968;2024-03-08T12:22:51;8.00;99.90
6822;DHT22;3449;48.728;8.968;2024-03-08T12:25:19;8.20;99.90
6822;DHT22;3449;48.728;8.968;2024-03-08T12:27:46;8.30;99.90
6822;DHT22;3449;48.728;8.968;2024-03-08T12:30:20;9.00;99.90
6822;DHT22;3449;48.728;8.968;2024-03-08T12:32:50;9.00;99.90
6822;DHT22;3449;48.728;8.968;2024-03-08T12:35:19;9.20;99.90
6822;DHT22;3449;48.728;8.968;2024-03-08T12:37:50;9.50;99.90
6822;DHT22;3449;48.728;8.968;2024-03-08T12:40:18;9.90;99.90
6822;DHT22;3449;48.728;8.968;2024-03-08T12:42:46;10.30;99.90
6822;DHT22;3449;48.728;8.968;2024-03-08T12:45:14;10.50;99.90
6822;DHT22;3449;48.728;8.968;2024-03-08T12:47:41;10.20;99.90
6822;DHT22;3449;48.728;8.968;2024-03-08T12:50:09;10.00;99.90
6822;DHT22;3449;48.728;8.968;2024-03-08T12:52:37;10.00;99.90
6822;DHT22;3449;48.728;8.968;2024-03-08T12:55:06;10.40;99.90
6822;DHT22;3449;48.728;8.968;2024-03-08T12:57:34;10.60;99.90
6822;DHT22;3449;48.728;8.968;2024-03-08T13:00:04;10.50;99.90
6822;DHT22;3449;48.728;8.968;2024-03-08T13:02:37;10.40;99.90
6822;DHT22;3449;48.728;8.968;2024-03-08T13:05:05;10.70;99.90
6822;DHT22;3449;48.728;8.968;2024-03-08T13:07:32;10.80;99.90
6822;DHT22;3449;48.728;8.968;2024-03-08T13:09:59;10.80;99.90
6822;DHT22;3449;48.728;8.968;2024-03-08T13:12:27;10.70;99.90
6822;DHT22;3449;48.728;8.968;2024-03-08T13:14:54;10.60;99.90
6822;DHT22;3449;48.728;8.968;2024-03-08T13:17:22;10.90;99.90
6822;DHT22;3449;48.728;8.968;2024-03-08T13:19:48;10.70;99.90
6822;DHT22;3449;48.728;8.968;2024-03-08T13:22:15;11.10;99.90
6822;DHT22;3449;48.728;8.968;2024-03-08T13:24:43;11.40;99.90
6822;DHT22;3449;48.728;8.968;2024-03-08T13:27:11;11.60;99.90
6822;DHT22;3449;48.728;8.968;2024-03-08T13:29:47;11.70;99.90
6822;DHT22;3449;48.728;8.968;2024-03-08T13:32:16;11.10;99.90
6822;DHT22;3449;48.728;8.968;2024-03-08T13:34:46;11.20;99.90
6822;DHT22;3449;48.728;8.968;2024-03-08T13:37:16;11.40;99.90
6822;DHT22;3449;48.728;8.968;2024-03-08T13:39:43;11.10;99.90
6822;DHT22;3449;48.728;8.968;2024-03-08T13:42:11;11.20;99.90
6822;DHT22;3449;48.728;8.968;2024-03-08T13:44:43;11.00;99.90
6822;DHT22;3449;48.728;8.968;2024-03-08T13:47:13;11.50;99.90
6822;DHT22;3449;48.728;8.968;2024-03-08T13:49:40;11.30;99.90
6822;DHT22;3449;48.728;8.968;2024-03-08T13:52:06;11.40;99.90
6822;DHT22;3449;48.728;8.968;2024-03-08T13:54:35;11.60;99.90
6822;DHT22;3449;48.728;8.968;2024-03-08T13:57:02;11.70;99.90
6822;DHT22;3449;48.728;8.968;2024-03-08T13:59:30;11.80;99.90
6822;DHT22;3449;48.728;8.968;2024-03-08T14:01:58;11.90;99.90
6822;DHT22;3449;48.728;8.968;2024-03-08T14:04:28;12.10;99.90
6822;DHT22;3449;48.728;8.968;2024-03-08T14:06:55;12.10;99.90
6822;DHT22;3449;48.728;8.968;2024-03-08T14:09:27;12.40;99.90
6822;DHT22;3449;48.728;8.968;2024-03-08T14:11:54;12.20;99.90
6822;DHT22;3449;48.728;8.968;2024-03-08T14:14:21;12.20;99.90
6822;DHT22;3449;48.728;8.968;2024-03-08T14:16:49;12.10;99.90
6822;DHT22;3449;48.728;8.968;2024-03-08T14:19:18;12.50;99.90
6822;DHT22;3449;48.728;8.968;2024-03-08T14:21:46;12.50;99.90
6822;DHT22;3449;48.728;8.968;2024-03-08T14:24:15;12.50;99.90
6822;DHT22;3449;48.728;8.968;2024-03-08T14:26:42;12.40;99.90
6822;DHT22;3449;48.728;8.968;2024-03-08T14:29:09;12.40;99.90
6822;DHT22;3449;48.728;8.968;2024-03-08T14:31:36;12.60;99.90
6822;DHT22;3449;48.728;8.968;2024-03-08T14:34:03;12.60;99.90
6822;DHT22;3449;48.728;8.968;2024-03-08T14:36:30;12.60;99.90
6822;DHT22;3449;48.728;8.968;2024-03-08T14:38:58;12.40;99.90
6822;DHT22;3449;48.728;8.968;2024-03-08T14:41:25;12.20;99.90
6822;DHT22;3449;48.728;8.968;2024-03-08T14:43:53;12.10;99.90
6822;DHT22;3449;48.728;8.968;2024-03-08T14:46:20;12.20;99.90
6822;DHT22;3449;48.728;8.968;2024-03-08T14:48:49;12.50;99.90
6822;DHT22;3449;48.728;8.968;2024-03-08T14:51:17;12.40;99.90
6822;DHT22;3449;48.728;8.968;2024-03-08T14:53:47;12.30;99.90
6822;DHT22;3449;48.728;8.968;2024-03-08T14:56:16;12.10;99.90
6822;DHT22;3449;48.728;8.968;2024-03-08T14:58:43;11.90;99.90
6822;DHT22;3449;48.728;8.968;2024-03-08T15:01:12;11.60;99.90
6822;DHT22;3449;48.728;8.968;2024-03-08T15:03:40;11.10;99.90
6822;DHT22;3449;48.728;8.968;2024-03-08T15:06:08;10.80;99.90
6822;DHT22;3449;48.728;8.968;2024-03-08T15:08:35;10.20;99.90
6822;DHT22;3449;48.728;8.968;2024-03-08T15:11:03;9.70;99.90
6822;DHT22;3449;48.728;8.968;2024-03-08T15:13:33;9.60;99.90
6822;DHT22;3449;48.728;8.968;2024-03-08T15:16:07;9.60;99.90
6822;DHT22;3449;48.728;8.968;2024-03-08T15:18:34;9.50;99.90
6822;DHT22;3449;48.728;8.968;2024-03-08T15:21:04;9.40;99.90
6822;DHT22;3449;48.728;8.968;2024-03-08T15:23:33;9.20;99.90
6822;DHT22;3449;48.728;8.968;2024-03-08T15:26:01;9.00;99.90
6822;DHT22;3449;48.728;8.968;2024-03-08T15:28:29;8.70;99.90
6822;DHT22;3449;48.728;8.968;2024-03-08T15:31:04;8.60;99.90
6822;DHT22;3449;48.728;8.968;2024-03-08T15:33:34;8.50;99.90
6822;DHT22;3449;48.728;8.968;2024-03-08T15:36:07;8.60;99.90
6822;DHT22;3449;48.728;8.968;2024-03-08T15:38:35;8.50;99.90
6822;DHT22;3449;48.728;8.968;2024-03-08T15:41:02;8.50;99.90
6822;DHT22;3449;48.728;8.968;2024-03-08T15:43:32;8.50;99.90
6822;DHT22;3449;48.728;8.968;2024-03-08T15:46:03;8.40;99.90
6822;DHT22;3449;48.728;8.968;2024-03-08T15:48:31;8.40;99.90
6822;DHT22;3449;48.728;8.968;2024-03-08T15:50:59;8.40;99.90
6822;DHT22;3449;48.728;8.968;2024-03-08T15:53:28;8.30;99.90
6822;DHT22;3449;48.728;8.968;2024-03-08T15:55:56;8.30;99.90
6822;DHT22;3449;48.728;8.968;2024-03-08T15:58:23;8.40;99.90
6822;DHT22;3449;48.728;8.968;2024-03-08T16:00:50;8.40;99.90
6822;DHT22;3449;48.728;8.968;2024-03-08T16:03:19;8.30;99.90
6822;DHT22;3449;48.728;8.968;2024-03-08T16:05:47;8.30;99.90
6822;DHT22;3449;48.728;8.968;2024-03-08T16:08:15;8.30;99.90
6822;DHT22;3449;48.728;8.968;2024-03-08T16:10:42;8.20;99.90
6822;DHT22;3449;48.728;8.968;2024-03-08T16:13:12;8.30;99.90
6822;DHT22;3449;48.728;8.968;2024-03-08T16:15:39;8.30;99.90
6822;DHT22;3449;48.728;8.968;2024-03-08T16:18:06;8.10;99.90
6822;DHT22;3449;48.728;8.968;2024-03-08T16:20:35;8.10;99.90